メインページ
METAR-TAF:

METAR-TAF

空港 :

ポルト・アレグレ, リオグランデ・ド・スル州, ブラジル

サルガド・フィーリョ国際空港

緯度: 30-00S, 経度: 051-11W, 海抜: 3m

現時点の気象観測

当レポートは27分前の17:00(UTC)に作成
の風 5kt、東/北東からの間で変化する
気温 26°C
湿度 48%
気圧 1016 hPa
視程10km以上
1,500メートル以下は雲なし、積乱雲なし

METAR: SBPA 231700Z 10005KT 060V170 CAVOK 26/14 Q1016

時間: 14:27 (17:27 UTC)

予報

当レポートは8時間12分前の09:15(UTC)に作成
予報は23日の 12時(UTC)から 24日の 12時(UTC)まで有効
の風 5kt
視程10km以上
1,500メートル以下は雲なし、積乱雲なし
23日の 16時(UTC)から 23日の 18時(UTC)まで徐々に
東/南東の風 10kt
24日の 00時(UTC)から 24日の 02時(UTC)まで徐々に
の風 5kt
確率 30%
24日の 08時(UTC)から 24日の 11時(UTC)まで
視程: 5000m

TAF: SBPA 230915Z 2312/2412 08005KT CAVOK TX26/2318Z TN14/2409Z BECMG 2316/2318 11010KT BECMG 2400/2402 10005KT PROB30 2408/2411 5000 BR NSC RMK PDW

4,000以上の空港の気象観測と天気予報(METAR報とTAF報)

利用可能な観測所は地図上に黄色い丸と赤い丸で示す。

丸の上にカーソルを重ねると観測所名を参照できる。

次にクリックすると気象観測と天気予報を参照できる。

マップの切り替え:黒色「×」印の緑ボタンをクリックして拡大、「-」印の緑ボタンをクリックして縮小、緑色の三角印をクリックして隣りの地図に切り替え


METAR-TAF: